createdAt,value
2019-03-06T00:01:02.657Z,7.55
2019-03-06T00:03:32.010Z,8.28
2019-03-06T00:06:01.401Z,8.78
2019-03-06T00:08:31.538Z,7.75
2019-03-06T00:11:00.906Z,7.78
2019-03-06T00:13:30.268Z,7.15
2019-03-06T00:15:59.653Z,7.85
2019-03-06T00:18:29.025Z,7.97
2019-03-06T00:20:58.396Z,8.30
2019-03-06T00:23:27.776Z,7.67
2019-03-06T00:25:57.424Z,7.72
2019-03-06T00:28:26.790Z,8.30
2019-03-06T00:30:56.469Z,8.38
2019-03-06T00:33:25.829Z,7.83
2019-03-06T00:35:56.832Z,7.60
2019-03-06T00:38:26.233Z,8.63
2019-03-06T00:41:03.567Z,7.60
2019-03-06T00:43:32.934Z,7.70
2019-03-06T00:46:02.629Z,8.18
2019-03-06T00:48:32.056Z,7.78
2019-03-06T00:51:01.421Z,7.75
2019-03-06T00:53:30.806Z,8.38
2019-03-06T00:56:00.175Z,8.80
2019-03-06T00:58:29.543Z,8.63
2019-03-06T01:00:59.037Z,7.70
2019-03-06T01:03:28.409Z,7.20
2019-03-06T01:05:57.784Z,6.85
2019-03-06T01:08:27.440Z,7.28
2019-03-06T01:10:56.897Z,7.65
2019-03-06T01:13:26.298Z,7.12
2019-03-06T01:15:55.658Z,7.58
2019-03-06T01:18:25.687Z,7.42
2019-03-06T01:20:55.058Z,8.00
2019-03-06T01:23:24.495Z,7.30
2019-03-06T01:25:53.866Z,7.00
2019-03-06T01:28:23.239Z,7.67
2019-03-06T01:30:53.103Z,7.62
2019-03-06T01:33:24.098Z,8.15
2019-03-06T01:36:07.355Z,7.53
2019-03-06T01:38:41.274Z,7.12
2019-03-06T01:41:15.210Z,7.75
2019-03-06T01:43:46.386Z,7.30
2019-03-06T01:46:15.757Z,7.87
2019-03-06T01:48:45.464Z,7.97
2019-03-06T01:51:14.839Z,7.42
2019-03-06T01:53:44.211Z,8.18
2019-03-06T01:56:13.594Z,7.92
2019-03-06T01:58:42.964Z,9.75
2019-03-06T02:01:12.340Z,8.50
2019-03-06T02:03:41.730Z,8.73
2019-03-06T02:06:11.179Z,8.40
2019-03-06T02:08:40.548Z,8.08
2019-03-06T02:11:10.607Z,8.60
2019-03-06T02:13:40.310Z,8.60
2019-03-06T02:16:09.679Z,8.90
2019-03-06T02:18:39.064Z,8.70
2019-03-06T02:21:08.436Z,9.13
2019-03-06T02:23:37.811Z,9.18
2019-03-06T02:26:07.184Z,9.00
2019-03-06T02:28:36.546Z,8.63
2019-03-06T02:31:06.605Z,8.70
2019-03-06T02:33:36.011Z,8.73
2019-03-06T02:36:05.381Z,9.03
2019-03-06T02:38:34.751Z,8.73
2019-03-06T02:41:04.137Z,8.93
2019-03-06T02:43:33.509Z,8.98
2019-03-06T02:46:02.894Z,8.43
2019-03-06T02:48:32.619Z,9.60
2019-03-06T02:51:02.003Z,9.03
2019-03-06T02:53:31.378Z,9.28
2019-03-06T02:56:01.369Z,10.15
2019-03-06T02:58:32.389Z,9.53
2019-03-06T03:01:09.383Z,10.15
2019-03-06T03:03:43.560Z,9.60
2019-03-06T03:06:14.915Z,9.88
2019-03-06T03:08:44.294Z,8.48
2019-03-06T03:11:13.670Z,10.15
2019-03-06T03:13:43.030Z,10.43
2019-03-06T03:16:12.903Z,9.18
2019-03-06T03:18:42.450Z,9.93
2019-03-06T03:21:11.830Z,10.08
2019-03-06T03:23:41.207Z,9.18
2019-03-06T03:26:10.582Z,9.63
2019-03-06T03:28:39.956Z,9.20
2019-03-06T03:31:09.520Z,10.20
2019-03-06T03:33:38.872Z,9.43
2019-03-06T03:36:08.291Z,10.48
2019-03-06T03:38:37.675Z,9.53
2019-03-06T03:41:07.040Z,9.90
2019-03-06T03:43:36.688Z,9.90
2019-03-06T03:46:06.058Z,9.83
2019-03-06T03:48:35.424Z,10.40
2019-03-06T03:51:04.864Z,9.93
2019-03-06T03:53:34.242Z,9.35
2019-03-06T03:56:03.901Z,10.43
2019-03-06T03:58:33.269Z,10.32
2019-03-06T04:01:02.969Z,9.58
2019-03-06T04:03:32.330Z,10.30
2019-03-06T04:06:01.687Z,9.90
2019-03-06T04:08:31.086Z,9.25
2019-03-06T04:11:00.451Z,9.90
2019-03-06T04:13:29.848Z,9.93
2019-03-06T04:15:59.238Z,9.68
2019-03-06T04:18:28.863Z,10.08
2019-03-06T04:20:58.228Z,9.95
2019-03-06T04:23:27.621Z,9.15
2019-03-06T04:25:56.991Z,9.78
2019-03-06T04:28:28.074Z,9.83
2019-03-06T04:30:57.517Z,10.58
2019-03-06T04:33:26.886Z,9.90
2019-03-06T04:35:56.244Z,9.90
2019-03-06T04:38:25.646Z,9.73
2019-03-06T04:40:55.017Z,10.20
2019-03-06T04:43:24.389Z,9.90
2019-03-06T04:45:53.790Z,11.15
2019-03-06T04:48:23.147Z,9.93
2019-03-06T04:50:52.533Z,9.80
2019-03-06T04:53:21.915Z,10.75
2019-03-06T04:55:51.291Z,10.55
2019-03-06T04:58:20.845Z,11.10
2019-03-06T05:00:50.232Z,11.03
2019-03-06T05:03:19.603Z,10.90
2019-03-06T05:05:48.981Z,10.17
2019-03-06T05:08:18.792Z,10.65
2019-03-06T05:10:48.541Z,11.05
2019-03-06T05:13:17.905Z,11.10
2019-03-06T05:15:47.297Z,12.25
2019-03-06T05:18:18.311Z,12.40
2019-03-06T05:20:47.682Z,11.55
2019-03-06T05:23:17.150Z,11.60
2019-03-06T05:25:46.526Z,12.15
2019-03-06T05:28:15.896Z,14.78
2019-03-06T05:30:45.666Z,13.05
2019-03-06T05:33:16.941Z,12.30
2019-03-06T05:36:16.426Z,12.75
2019-03-06T05:39:07.776Z,12.50
2019-03-06T05:41:37.227Z,11.70
2019-03-06T05:44:07.222Z,13.13
2019-03-06T05:46:36.598Z,13.48
2019-03-06T05:49:06.535Z,13.25
2019-03-06T05:51:35.909Z,13.08
2019-03-06T05:54:05.347Z,12.95
2019-03-06T05:56:34.742Z,13.15
2019-03-06T05:59:04.106Z,12.25
2019-03-06T06:01:33.799Z,11.93
2019-03-06T06:04:03.176Z,12.35
2019-03-06T06:06:32.543Z,12.50
2019-03-06T06:09:01.929Z,12.28
2019-03-06T06:11:31.626Z,11.50
2019-03-06T06:14:01.078Z,12.37
2019-03-06T06:16:30.442Z,12.43
2019-03-06T06:19:01.671Z,12.07
2019-03-06T06:21:32.564Z,11.85
2019-03-06T06:24:03.825Z,12.25
2019-03-06T06:26:33.490Z,10.40
2019-03-06T06:29:02.866Z,12.10
2019-03-06T06:31:32.225Z,12.53
2019-03-06T06:34:01.613Z,12.40
2019-03-06T06:36:31.179Z,13.98
2019-03-06T06:39:00.533Z,12.90
2019-03-06T06:41:29.937Z,16.32
2019-03-06T06:43:59.299Z,14.15
2019-03-06T06:46:28.685Z,12.23
2019-03-06T06:48:58.348Z,15.10
2019-03-06T06:51:41.431Z,12.90
2019-03-06T06:54:27.377Z,12.30
2019-03-06T06:57:20.949Z,14.73
2019-03-06T07:00:13.144Z,14.00
2019-03-06T07:03:34.393Z,13.40
2019-03-06T07:06:05.775Z,11.73
2019-03-06T07:08:45.651Z,12.85
2019-03-06T07:11:22.607Z,12.37
2019-03-06T07:13:59.857Z,12.03
2019-03-06T07:16:40.235Z,14.15
2019-03-06T07:19:23.044Z,12.30
2019-03-06T07:21:57.025Z,13.20
2019-03-06T07:24:46.132Z,13.58
2019-03-06T07:27:26.404Z,14.23
2019-03-06T07:29:59.786Z,13.18
2019-03-06T07:32:42.794Z,13.65
2019-03-06T07:36:01.026Z,11.90
2019-03-06T07:38:30.752Z,15.05
2019-03-06T07:41:01.775Z,15.08
2019-03-06T07:43:49.166Z,13.88
2019-03-06T07:46:25.917Z,13.48
2019-03-06T07:49:00.159Z,15.40
2019-03-06T07:54:26.084Z,12.98
2019-03-06T07:56:59.274Z,14.05
2019-03-06T07:59:28.207Z,11.38
2019-03-06T08:02:14.204Z,11.38
2019-03-06T08:04:53.109Z,11.75
2019-03-06T08:07:22.572Z,11.53
2019-03-06T08:09:52.365Z,11.20
2019-03-06T08:12:23.382Z,12.23
2019-03-06T08:14:54.845Z,11.03
2019-03-06T08:17:34.542Z,11.73
2019-03-06T08:20:22.511Z,11.90
2019-03-06T08:23:09.972Z,11.78
2019-03-06T08:25:44.543Z,11.25
2019-03-06T08:28:15.080Z,11.10
2019-03-06T08:31:04.978Z,11.88
2019-03-06T08:33:34.359Z,10.25
2019-03-06T08:36:03.807Z,10.30
2019-03-06T08:38:33.181Z,12.95
2019-03-06T08:41:05.114Z,10.58
2019-03-06T08:43:33.677Z,12.18
2019-03-06T08:46:11.191Z,10.20
2019-03-06T08:48:42.202Z,10.90
2019-03-06T08:51:15.855Z,9.58
2019-03-06T08:54:03.421Z,10.88
2019-03-06T08:56:43.437Z,10.55
2019-03-06T08:59:29.498Z,10.15
2019-03-06T09:02:01.236Z,9.75
2019-03-06T09:04:32.771Z,9.93
2019-03-06T09:07:09.998Z,11.43
2019-03-06T09:09:41.020Z,11.85
2019-03-06T09:12:18.029Z,10.28
2019-03-06T09:15:01.006Z,10.65
2019-03-06T09:17:34.744Z,9.68
2019-03-06T09:20:35.249Z,9.88
2019-03-06T09:23:13.200Z,9.50
2019-03-06T09:26:01.836Z,9.88
2019-03-06T09:28:37.346Z,9.20
2019-03-06T09:31:09.078Z,8.80
2019-03-06T09:33:52.321Z,9.48
2019-03-06T09:36:35.458Z,9.30
2019-03-06T09:39:11.860Z,9.25
2019-03-06T09:41:42.880Z,8.83
2019-03-06T09:44:31.953Z,8.10
2019-03-06T09:47:06.043Z,9.35
2019-03-06T09:49:37.078Z,8.38
2019-03-06T09:52:08.191Z,7.97
2019-03-06T09:54:45.183Z,9.55
2019-03-06T09:57:31.585Z,8.53
2019-03-06T10:00:05.452Z,11.03
2019-03-06T10:02:39.381Z,9.45
2019-03-06T10:05:26.072Z,9.15
2019-03-06T10:08:08.713Z,8.78
2019-03-06T10:10:47.706Z,8.30
2019-03-06T10:13:21.672Z,6.92
2019-03-06T10:15:55.584Z,8.15
2019-03-06T10:18:26.924Z,6.83
2019-03-06T10:20:56.362Z,6.12
2019-03-06T10:23:25.745Z,7.05
2019-03-06T10:25:55.120Z,8.85
2019-03-06T10:28:27.989Z,7.72
2019-03-06T10:31:02.427Z,6.62
2019-03-06T10:33:27.131Z,6.72
2019-03-06T10:35:56.515Z,7.80
2019-03-06T10:38:25.916Z,6.67
2019-03-06T10:40:55.313Z,7.42
2019-03-06T10:43:24.687Z,6.58
2019-03-06T10:45:54.069Z,7.87
2019-03-06T10:48:23.449Z,9.90
2019-03-06T10:50:53.244Z,11.15
2019-03-06T10:53:22.767Z,9.30
2019-03-06T10:55:52.263Z,7.78
2019-03-06T10:58:21.998Z,8.15
2019-03-06T11:00:52.963Z,8.00
2019-03-06T11:03:24.303Z,8.63
2019-03-06T11:05:54.347Z,7.80
2019-03-06T11:08:25.052Z,7.05
2019-03-06T11:10:54.762Z,6.97
2019-03-06T11:13:24.206Z,7.25
2019-03-06T11:15:55.891Z,6.95
2019-03-06T11:18:24.969Z,6.50
2019-03-06T11:20:54.386Z,6.53
2019-03-06T11:23:25.011Z,6.50
2019-03-06T11:25:54.489Z,6.60
2019-03-06T11:28:24.347Z,6.47
2019-03-06T11:30:59.646Z,6.28
2019-03-06T11:33:29.018Z,5.15
2019-03-06T11:36:01.305Z,5.10
2019-03-06T11:38:30.937Z,6.17
2019-03-06T11:41:00.876Z,6.25
2019-03-06T11:43:30.820Z,5.60
2019-03-06T11:46:00.342Z,5.83
2019-03-06T11:48:30.043Z,6.37
2019-03-06T11:50:59.430Z,5.17
2019-03-06T11:53:28.801Z,4.92
2019-03-06T11:55:59.796Z,5.35
2019-03-06T11:58:29.176Z,5.28
2019-03-06T12:00:58.586Z,4.65
2019-03-06T12:03:28.212Z,5.30
2019-03-06T12:05:58.543Z,5.22
2019-03-06T12:08:27.921Z,4.97
2019-03-06T12:10:57.423Z,4.80
2019-03-06T12:13:26.819Z,4.55
2019-03-06T12:15:56.253Z,5.28
2019-03-06T12:18:26.446Z,5.10
2019-03-06T12:20:56.006Z,4.67
2019-03-06T12:23:25.717Z,4.55
2019-03-06T12:25:55.093Z,4.35
2019-03-06T12:28:24.818Z,4.50
2019-03-06T12:30:54.443Z,4.25
2019-03-06T12:33:26.842Z,4.00
2019-03-06T12:35:56.235Z,3.92
2019-03-06T12:38:26.144Z,4.97
2019-03-06T12:40:55.522Z,4.78
2019-03-06T12:43:24.912Z,4.10
2019-03-06T12:46:23.734Z,3.92
2019-03-06T12:48:56.454Z,4.53
2019-03-06T12:51:25.829Z,3.92
2019-03-06T12:53:55.202Z,4.17
2019-03-06T12:56:24.591Z,4.10
2019-03-06T12:58:53.970Z,3.47
2019-03-06T13:01:23.367Z,3.85
2019-03-06T13:03:52.748Z,3.55
2019-03-06T13:06:24.882Z,4.37
2019-03-06T13:08:53.418Z,4.55
2019-03-06T13:11:23.292Z,3.67
2019-03-06T13:13:52.661Z,3.33
2019-03-06T13:16:22.401Z,3.77
2019-03-06T13:18:51.861Z,4.05
2019-03-06T13:21:21.240Z,3.10
2019-03-06T13:23:50.610Z,3.10
2019-03-06T13:26:20.004Z,3.22
2019-03-06T13:28:57.159Z,3.00
2019-03-06T13:31:20.483Z,3.25
2019-03-06T13:33:58.078Z,3.55
2019-03-06T13:36:27.456Z,3.22
2019-03-06T13:39:06.081Z,2.52
2019-03-06T13:41:28.423Z,2.60
2019-03-06T13:43:57.811Z,2.37
2019-03-06T13:46:27.603Z,3.22
2019-03-06T13:48:56.990Z,2.72
2019-03-06T13:51:26.435Z,2.85
2019-03-06T13:53:56.724Z,3.12
2019-03-06T13:56:26.490Z,3.00
2019-03-06T13:58:55.857Z,2.35
2019-03-06T14:01:25.512Z,2.52
2019-03-06T14:03:55.470Z,2.45
2019-03-06T14:06:24.910Z,3.10
2019-03-06T14:08:54.283Z,3.08
2019-03-06T14:11:23.687Z,3.22
2019-03-06T14:13:53.063Z,4.15
2019-03-06T14:16:22.517Z,2.98
2019-03-06T14:18:52.371Z,2.70
2019-03-06T14:21:22.510Z,2.65
2019-03-06T14:23:51.892Z,3.33
2019-03-06T14:26:21.297Z,2.80
2019-03-06T14:28:50.672Z,2.77
2019-03-06T14:31:20.125Z,2.52
2019-03-06T14:33:49.507Z,2.77
2019-03-06T14:36:18.877Z,2.45
2019-03-06T14:38:48.338Z,2.85
2019-03-06T14:41:18.341Z,2.63
2019-03-06T14:43:47.955Z,2.58
2019-03-06T14:46:17.833Z,2.52
2019-03-06T14:48:47.284Z,2.98
2019-03-06T14:51:16.664Z,3.00
2019-03-06T14:53:46.044Z,3.12
2019-03-06T14:56:15.442Z,2.90
2019-03-06T14:58:45.186Z,3.67
2019-03-06T15:01:14.634Z,3.27
2019-03-06T15:03:44.189Z,3.22
2019-03-06T15:06:13.560Z,3.37
2019-03-06T15:08:42.930Z,3.47
2019-03-06T15:11:12.312Z,3.92
2019-03-06T15:13:41.763Z,3.58
2019-03-06T15:16:11.227Z,3.22
2019-03-06T15:18:40.647Z,2.95
2019-03-06T15:21:10.027Z,3.60
2019-03-06T15:23:39.410Z,2.83
2019-03-06T15:26:09.988Z,4.40
2019-03-06T15:28:39.493Z,3.17
2019-03-06T15:31:08.953Z,3.60
2019-03-06T15:33:38.328Z,3.85
2019-03-06T15:36:07.708Z,3.30
2019-03-06T15:38:37.372Z,3.30
2019-03-06T15:41:07.208Z,3.60
2019-03-06T15:43:36.588Z,4.05
2019-03-06T15:46:06.498Z,2.77
2019-03-06T15:48:36.251Z,3.58
2019-03-06T15:51:05.628Z,3.50
2019-03-06T15:53:34.992Z,3.95
2019-03-06T15:56:04.387Z,4.22
2019-03-06T15:58:34.190Z,4.80
2019-03-06T16:01:04.125Z,4.10
2019-03-06T16:03:33.589Z,3.40
2019-03-06T16:06:03.220Z,4.30
2019-03-06T16:08:32.817Z,3.40
2019-03-06T16:11:02.682Z,3.90
2019-03-06T16:13:32.099Z,4.30
2019-03-06T16:16:01.627Z,4.63
2019-03-06T16:18:31.013Z,4.35
2019-03-06T16:21:00.393Z,4.25
2019-03-06T16:23:29.771Z,5.22
2019-03-06T16:25:59.157Z,4.12
2019-03-06T16:28:28.528Z,4.50
2019-03-06T16:30:57.901Z,4.97
2019-03-06T16:33:27.642Z,4.80
2019-03-06T16:35:57.200Z,5.42
2019-03-06T16:38:26.940Z,5.50
2019-03-06T16:40:56.326Z,5.58
2019-03-06T16:43:25.690Z,6.08
2019-03-06T16:45:55.645Z,6.37
2019-03-06T16:48:25.180Z,6.17
2019-03-06T16:50:54.555Z,6.70
2019-03-06T16:53:23.933Z,6.40
2019-03-06T16:55:53.819Z,7.37
2019-03-06T16:58:23.173Z,6.95
2019-03-06T17:00:53.551Z,6.90
2019-03-06T17:03:23.027Z,7.37
2019-03-06T17:05:52.460Z,7.25
2019-03-06T17:08:21.832Z,6.67
2019-03-06T17:10:51.282Z,7.37
2019-03-06T17:13:20.652Z,7.15
2019-03-06T17:15:50.048Z,6.78
2019-03-06T17:18:20.111Z,7.35
2019-03-06T17:20:49.482Z,6.55
2019-03-06T17:23:18.852Z,6.75
2019-03-06T17:25:48.245Z,7.15
2019-03-06T17:28:17.783Z,6.97
2019-03-06T17:30:47.293Z,6.40
2019-03-06T17:33:17.989Z,6.33
2019-03-06T17:35:47.356Z,6.67
2019-03-06T17:38:19.466Z,7.42
2019-03-06T17:40:50.114Z,7.95
2019-03-06T17:43:19.845Z,7.37
2019-03-06T17:45:49.227Z,7.60
2019-03-06T17:48:18.612Z,7.35
2019-03-06T17:50:48.200Z,7.63
2019-03-06T17:53:17.568Z,7.12
2019-03-06T17:55:46.949Z,6.78
2019-03-06T17:58:16.835Z,8.05
2019-03-06T18:00:47.856Z,7.17
2019-03-06T18:03:25.434Z,6.50
2019-03-06T18:05:54.814Z,6.45
2019-03-06T18:08:24.175Z,6.70
2019-03-06T18:10:53.835Z,6.47
2019-03-06T18:13:23.201Z,6.95
2019-03-06T18:15:52.605Z,6.62
2019-03-06T18:18:22.245Z,6.65
2019-03-06T18:20:51.621Z,7.12
2019-03-06T18:23:21.005Z,7.08
2019-03-06T18:25:50.727Z,7.28
2019-03-06T18:28:20.102Z,6.53
2019-03-06T18:30:49.744Z,6.62
2019-03-06T18:33:19.200Z,6.50
2019-03-06T18:35:48.596Z,6.80
2019-03-06T18:38:17.953Z,6.62
2019-03-06T18:40:47.610Z,6.58
2019-03-06T18:43:16.985Z,6.12
2019-03-06T18:45:46.361Z,5.75
2019-03-06T18:48:16.303Z,5.95
2019-03-06T18:50:45.677Z,6.80
2019-03-06T18:53:15.292Z,7.85
2019-03-06T18:55:44.758Z,7.83
2019-03-06T18:58:14.227Z,6.17
2019-03-06T19:00:43.603Z,5.70
2019-03-06T19:03:12.991Z,6.55
2019-03-06T19:05:42.430Z,6.20
2019-03-06T19:08:11.787Z,5.30
2019-03-06T19:10:41.857Z,5.28
2019-03-06T19:13:12.430Z,5.20
2019-03-06T19:15:42.017Z,4.67
2019-03-06T19:18:11.400Z,4.45
2019-03-06T19:20:40.769Z,5.45
2019-03-06T19:23:10.213Z,4.72
2019-03-06T19:25:39.784Z,6.08
2019-03-06T19:28:09.157Z,5.40
2019-03-06T19:30:38.867Z,5.10
2019-03-06T19:33:08.541Z,5.05
2019-03-06T19:35:37.935Z,4.72
2019-03-06T19:38:07.740Z,4.62
2019-03-06T19:40:37.154Z,5.75
2019-03-06T19:43:06.587Z,4.33
2019-03-06T19:45:35.957Z,4.78
2019-03-06T19:48:05.474Z,4.67
2019-03-06T19:50:34.934Z,4.40
2019-03-06T19:53:04.651Z,5.22
2019-03-06T19:55:35.879Z,4.47
2019-03-06T19:58:12.872Z,5.05
2019-03-06T20:00:44.384Z,5.25
2019-03-06T20:03:13.777Z,4.78
2019-03-06T20:05:43.393Z,6.85
2019-03-06T20:08:15.302Z,7.65
2019-03-06T20:10:44.937Z,6.00
2019-03-06T20:13:14.290Z,5.22
2019-03-06T20:15:43.731Z,5.05
2019-03-06T20:18:13.223Z,5.12
2019-03-06T20:20:42.875Z,5.08
2019-03-06T20:23:12.337Z,5.05
2019-03-06T20:25:42.034Z,5.20
2019-03-06T20:28:11.534Z,4.30
2019-03-06T20:30:40.915Z,4.70
2019-03-06T20:33:10.548Z,4.35
2019-03-06T20:35:40.205Z,4.62
2019-03-06T20:38:10.672Z,5.03
2019-03-06T20:40:40.008Z,5.00
2019-03-06T20:43:09.374Z,5.22
2019-03-06T20:45:38.771Z,4.65
2019-03-06T20:48:08.195Z,5.08
2019-03-06T20:50:37.810Z,3.92
2019-03-06T20:53:07.202Z,4.17
2019-03-06T20:55:36.569Z,4.45
2019-03-06T20:58:06.247Z,4.28
2019-03-06T21:00:36.452Z,4.12
2019-03-06T21:03:05.832Z,4.80
2019-03-06T21:05:35.211Z,5.25
2019-03-06T21:08:04.588Z,5.00
2019-03-06T21:10:33.980Z,4.53
2019-03-06T21:13:03.383Z,4.60
2019-03-06T21:15:32.778Z,4.40
2019-03-06T21:18:02.150Z,4.20
2019-03-06T21:20:31.522Z,5.10
2019-03-06T21:23:01.525Z,4.85
2019-03-06T21:25:30.908Z,4.30
2019-03-06T21:28:00.282Z,4.40
2019-03-06T21:30:37.052Z,3.60
2019-03-06T21:33:06.424Z,4.30
2019-03-06T21:35:35.800Z,4.28
2019-03-06T21:38:05.528Z,4.15
2019-03-06T21:40:35.072Z,4.42
2019-03-06T21:43:04.437Z,5.10
2019-03-06T21:45:34.034Z,4.55
2019-03-06T21:48:03.416Z,4.78
2019-03-06T21:50:32.850Z,5.17
2019-03-06T21:53:02.253Z,4.17
2019-03-06T21:55:31.803Z,4.20
2019-03-06T21:58:01.182Z,3.95
2019-03-06T22:00:32.606Z,4.47
2019-03-06T22:03:01.974Z,4.92
2019-03-06T22:05:31.352Z,5.42
2019-03-06T22:08:00.731Z,4.12
2019-03-06T22:10:30.107Z,4.05
2019-03-06T22:12:59.491Z,4.30
2019-03-06T22:15:28.901Z,4.53
2019-03-06T22:18:00.977Z,3.72
2019-03-06T22:20:30.341Z,4.17
2019-03-06T22:23:00.296Z,4.08
2019-03-06T22:25:29.670Z,4.78
2019-03-06T22:27:59.054Z,5.30
2019-03-06T22:30:28.447Z,5.50
2019-03-06T22:32:59.570Z,5.47
2019-03-06T22:35:29.127Z,5.12
2019-03-06T22:37:58.872Z,4.72
2019-03-06T22:40:28.226Z,4.57
2019-03-06T22:42:57.596Z,4.22
2019-03-06T22:45:27.471Z,4.40
2019-03-06T22:47:56.835Z,3.80
2019-03-06T22:50:26.200Z,4.55
2019-03-06T22:52:55.586Z,4.45
2019-03-06T22:55:25.575Z,4.70
2019-03-06T22:57:54.972Z,4.37
2019-03-06T23:00:50.916Z,4.70
2019-03-06T23:03:22.021Z,5.22
2019-03-06T23:05:51.394Z,5.28
2019-03-06T23:08:20.785Z,5.65
2019-03-06T23:10:50.152Z,5.42
2019-03-06T23:13:19.531Z,5.30
2019-03-06T23:15:48.944Z,5.58
2019-03-06T23:18:18.319Z,5.42
2019-03-06T23:20:47.693Z,5.12
2019-03-06T23:23:17.303Z,4.12
2019-03-06T23:25:46.684Z,4.12
2019-03-06T23:28:16.244Z,4.47
2019-03-06T23:30:45.981Z,3.83
2019-03-06T23:33:15.382Z,4.80
2019-03-06T23:35:44.756Z,4.67
2019-03-06T23:38:14.195Z,4.60
2019-03-06T23:40:43.593Z,4.78
2019-03-06T23:43:13.229Z,5.05
2019-03-06T23:45:42.861Z,4.67
2019-03-06T23:48:12.510Z,5.15
2019-03-06T23:50:41.894Z,4.65
2019-03-06T23:53:12.358Z,4.97
2019-03-06T23:55:41.908Z,4.95
2019-03-06T23:58:11.268Z,4.20
